Time,TemperatureF,DewpointF,PressureIn,WindDirection,WindDirectionDegrees,WindSpeedMPH,WindSpeedGustMPH,Humidity,HourlyPrecipIn,Conditions,Clouds,dailyrainin,SoftwareType,DateUTC
2013-06-28 00:01:00,75.0,72.0,29.52,WSW,256,4.0,6.0,91,0.00,,,0.14,weatherlink.com 1.10,2013-06-28 04:01:00,
2013-06-28 00:17:00,74.9,71.0,29.52,West,266,1.0,11.0,88,0.00,,,0.14,weatherlink.com 1.10,2013-06-28 04:17:00,
2013-06-28 00:32:00,74.9,71.0,29.52,WSW,256,4.0,10.0,87,0.00,,,0.14,weatherlink.com 1.10,2013-06-28 04:32:00,
2013-06-28 00:47:00,75.0,71.0,29.52,WSW,253,3.0,7.0,87,0.00,,,0.14,weatherlink.com 1.10,2013-06-28 04:47:00,
2013-06-28 01:02:00,75.0,71.0,29.52,NW,305,2.0,5.0,87,0.00,,,0.14,weatherlink.com 1.10,2013-06-28 05:02:00,
2013-06-28 01:17:00,74.9,71.0,29.52,West,273,4.0,8.0,87,0.00,,,0.14,weatherlink.com 1.10,2013-06-28 05:17:00,
2013-06-28 01:32:00,74.8,71.0,29.51,WNW,290,1.0,4.0,88,0.00,,,0.14,weatherlink.com 1.10,2013-06-28 05:32:00,
2013-06-28 01:47:00,74.8,71.0,29.51,West,273,2.0,5.0,87,0.00,,,0.14,weatherlink.com 1.10,2013-06-28 05:47:00,
2013-06-28 02:02:00,74.9,71.0,29.50,WSW,248,1.0,3.0,87,0.00,,,0.14,weatherlink.com 1.10,2013-06-28 06:02:00,
2013-06-28 02:17:00,75.0,71.0,29.50,WSW,248,2.0,4.0,86,0.00,,,0.14,weatherlink.com 1.10,2013-06-28 06:17:00,
2013-06-28 02:32:00,75.2,71.0,29.50,WSW,256,1.0,4.0,85,0.00,,,0.14,weatherlink.com 1.10,2013-06-28 06:32:00,
2013-06-28 02:47:00,75.5,70.0,29.50,NE,48,3.0,3.0,84,0.00,,,0.14,weatherlink.com 1.10,2013-06-28 06:47:00,
2013-06-28 03:02:00,74.8,70.0,29.50,West,260,0.0,4.0,85,0.00,,,0.14,weatherlink.com 1.10,2013-06-28 07:02:00,
2013-06-28 03:17:00,74.2,70.0,29.49,WSW,250,2.0,3.0,86,0.00,,,0.14,weatherlink.com 1.10,2013-06-28 07:17:00,
2013-06-28 03:32:00,74.2,70.0,29.49,WSW,240,0.0,3.0,86,0.00,,,0.14,weatherlink.com 1.10,2013-06-28 07:32:00,
2013-06-28 03:47:00,74.5,70.0,29.49,SW,232,2.0,5.0,86,0.00,,,0.14,weatherlink.com 1.10,2013-06-28 07:47:00,
2013-06-28 04:02:00,74.7,70.0,29.49,SW,232,2.0,4.0,85,0.00,,,0.14,weatherlink.com 1.10,2013-06-28 08:02:00,
2013-06-28 04:17:00,74.8,70.0,29.48,WSW,248,1.0,6.0,85,0.00,,,0.14,weatherlink.com 1.10,2013-06-28 08:17:00,
2013-06-28 04:32:00,74.7,70.0,29.48,WSW,253,3.0,4.0,86,0.00,,,0.14,weatherlink.com 1.10,2013-06-28 08:32:00,
2013-06-28 04:47:00,74.7,70.0,29.48,WNW,302,1.0,5.0,86,0.00,,,0.14,weatherlink.com 1.10,2013-06-28 08:47:00,
2013-06-28 05:02:00,74.6,70.0,29.48,West,262,4.0,5.0,86,0.00,,,0.14,weatherlink.com 1.10,2013-06-28 09:02:00,
2013-06-28 05:17:00,74.4,70.0,29.48,West,260,2.0,4.0,86,0.00,,,0.14,weatherlink.com 1.10,2013-06-28 09:17:00,
2013-06-28 05:32:00,74.3,70.0,29.48,WSW,252,3.0,5.0,86,0.00,,,0.14,weatherlink.com 1.10,2013-06-28 09:32:00,
2013-06-28 05:47:00,74.4,70.0,29.48,West,262,3.0,8.0,85,0.00,,,0.14,weatherlink.com 1.10,2013-06-28 09:47:00,
2013-06-28 06:02:00,74.4,70.0,29.49,West,264,2.0,6.0,85,0.00,,,0.14,weatherlink.com 1.10,2013-06-28 10:02:00,
2013-06-28 06:17:00,74.7,70.0,29.49,WSW,257,4.0,6.0,85,0.00,,,0.14,weatherlink.com 1.10,2013-06-28 10:17:00,
2013-06-28 06:32:00,75.0,70.0,29.49,West,277,2.0,6.0,85,0.00,,,0.14,weatherlink.com 1.10,2013-06-28 10:32:00,
2013-06-28 06:47:00,75.2,71.0,29.50,West,267,4.0,8.0,85,0.00,,,0.14,weatherlink.com 1.10,2013-06-28 10:47:00,
2013-06-28 07:02:00,75.3,70.0,29.50,SW,228,4.0,6.0,84,0.00,,,0.14,weatherlink.com 1.10,2013-06-28 11:02:00,
2013-06-28 07:17:00,75.5,70.0,29.50,WSW,256,3.0,7.0,84,0.00,,,0.14,weatherlink.com 1.10,2013-06-28 11:17:00,
2013-06-28 07:32:00,75.5,70.0,29.50,West,259,4.0,8.0,83,0.00,,,0.14,weatherlink.com 1.10,2013-06-28 11:32:00,
2013-06-28 07:47:00,76.0,71.0,29.49,WNW,303,2.0,6.0,83,0.00,,,0.14,weatherlink.com 1.10,2013-06-28 11:47:00,
2013-06-28 08:02:00,76.5,70.0,29.49,NW,312,2.0,5.0,81,0.00,,,0.14,weatherlink.com 1.10,2013-06-28 12:02:00,
2013-06-28 08:17:00,76.5,70.0,29.49,WSW,242,4.0,7.0,81,0.00,,,0.14,weatherlink.com 1.10,2013-06-28 12:17:00,
2013-06-28 08:32:00,77.1,71.0,29.49,West,262,2.0,10.0,80,0.00,,,0.14,weatherlink.com 1.10,2013-06-28 12:32:00,
2013-06-28 08:47:00,77.8,71.0,29.48,West,276,3.0,7.0,79,0.00,,,0.14,weatherlink.com 1.10,2013-06-28 12:47:00,
2013-06-28 09:02:00,78.8,70.0,29.48,West,264,3.0,8.0,75,0.00,,,0.14,weatherlink.com 1.10,2013-06-28 13:02:00,
2013-06-28 09:17:00,78.7,70.0,29.47,West,264,5.0,8.0,75,0.00,,,0.14,weatherlink.com 1.10,2013-06-28 13:17:00,
2013-06-28 09:32:00,80.1,70.0,29.47,WSW,245,4.0,7.0,72,0.00,,,0.14,weatherlink.com 1.10,2013-06-28 13:32:00,
2013-06-28 09:47:00,80.7,70.0,29.46,WSW,253,3.0,8.0,70,0.00,,,0.14,weatherlink.com 1.10,2013-06-28 13:47:00,
2013-06-28 10:02:00,81.4,70.0,29.46,West,259,3.0,8.0,68,0.00,,,0.14,weatherlink.com 1.10,2013-06-28 14:02:00,
2013-06-28 10:17:00,81.2,70.0,29.46,WSW,253,4.0,6.0,68,0.00,,,0.14,weatherlink.com 1.10,2013-06-28 14:17:00,
2013-06-28 10:32:00,80.3,69.0,29.46,WSW,257,3.0,7.0,69,0.00,,,0.14,weatherlink.com 1.10,2013-06-28 14:32:00,
2013-06-28 10:47:00,79.9,70.0,29.46,WSW,249,3.0,5.0,71,0.00,,,0.14,weatherlink.com 1.10,2013-06-28 14:47:00,
2013-06-28 11:02:00,80.8,69.0,29.46,WSW,253,1.0,4.0,68,0.00,,,0.14,weatherlink.com 1.10,2013-06-28 15:02:00,
2013-06-28 11:17:00,81.0,69.0,29.47,West,271,1.0,10.0,68,0.00,,,0.14,weatherlink.com 1.10,2013-06-28 15:17:00,
2013-06-28 11:32:00,81.7,69.0,29.47,West,277,4.0,9.0,66,0.00,,,0.14,weatherlink.com 1.10,2013-06-28 15:32:00,
2013-06-28 11:47:00,82.0,69.0,29.48,WSW,239,3.0,14.0,64,0.00,,,0.14,weatherlink.com 1.10,2013-06-28 15:47:00,
2013-06-28 12:02:00,82.9,69.0,29.48,WSW,246,5.0,8.0,63,0.00,,,0.00,weatherlink.com 1.10,2013-06-28 16:02:00,
2013-06-28 12:17:00,83.6,69.0,29.48,WSW,239,4.0,16.0,61,0.00,,,0.00,weatherlink.com 1.10,2013-06-28 16:17:00,
2013-06-28 12:32:00,83.7,69.0,29.48,West,266,5.0,11.0,61,0.00,,,0.00,weatherlink.com 1.10,2013-06-28 16:32:00,
2013-06-28 12:47:00,83.8,68.0,29.47,WSW,252,4.0,8.0,60,0.00,,,0.00,weatherlink.com 1.10,2013-06-28 16:47:00,
2013-06-28 13:02:00,84.7,68.0,29.47,WSW,245,5.0,9.0,58,0.00,,,0.00,weatherlink.com 1.10,2013-06-28 17:02:00,
2013-06-28 13:18:00,84.7,68.0,29.47,West,259,5.0,9.0,58,0.00,,,0.00,weatherlink.com 1.10,2013-06-28 17:18:00,
2013-06-28 13:33:00,84.7,68.0,29.48,West,264,1.0,5.0,58,0.00,,,0.00,weatherlink.com 1.10,2013-06-28 17:33:00,
2013-06-28 13:48:00,85.4,68.0,29.47,West,276,4.0,7.0,56,0.00,,,0.00,weatherlink.com 1.10,2013-06-28 17:48:00,
2013-06-28 14:03:00,86.0,68.0,29.46,East,79,7.0,10.0,55,0.00,,,0.00,weatherlink.com 1.10,2013-06-28 18:03:00,
2013-06-28 14:18:00,87.2,69.0,29.46,West,259,3.0,8.0,54,0.00,,,0.00,weatherlink.com 1.10,2013-06-28 18:18:00,
2013-06-28 14:33:00,87.1,68.0,29.45,NE,39,2.0,9.0,54,0.00,,,0.00,weatherlink.com 1.10,2013-06-28 18:33:00,
2013-06-28 14:48:00,86.4,68.0,29.46,ENE,72,1.0,8.0,55,0.00,,,0.00,weatherlink.com 1.10,2013-06-28 18:48:00,
2013-06-28 15:03:00,86.5,68.0,29.45,WSW,249,3.0,6.0,54,0.00,,,0.00,weatherlink.com 1.10,2013-06-28 19:03:00,
2013-06-28 15:18:00,84.9,69.0,29.45,West,259,3.0,8.0,59,0.00,,,0.00,weatherlink.com 1.10,2013-06-28 19:18:00,
2013-06-28 15:33:00,85.4,68.0,29.45,WSW,256,5.0,8.0,57,0.00,,,0.00,weatherlink.com 1.10,2013-06-28 19:33:00,
2013-06-28 15:48:00,85.9,67.0,29.44,SW,218,4.0,7.0,54,0.00,,,0.00,weatherlink.com 1.10,2013-06-28 19:48:00,
2013-06-28 16:03:00,87.9,67.0,29.43,WSW,250,4.0,8.0,50,0.00,,,0.00,weatherlink.com 1.10,2013-06-28 20:03:00,
2013-06-28 16:18:00,89.0,68.0,29.43,WNW,284,3.0,6.0,50,0.00,,,0.00,weatherlink.com 1.10,2013-06-28 20:18:00,
2013-06-28 16:33:00,88.7,68.0,29.43,West,262,2.0,9.0,50,0.00,,,0.00,weatherlink.com 1.10,2013-06-28 20:33:00,
2013-06-28 16:48:00,87.8,67.0,29.43,WSW,253,2.0,5.0,50,0.00,,,0.00,weatherlink.com 1.10,2013-06-28 20:48:00,
2013-06-28 17:03:00,86.7,67.0,29.44,West,274,2.0,7.0,52,0.00,,,0.00,weatherlink.com 1.10,2013-06-28 21:03:00,
2013-06-28 17:18:00,86.1,67.0,29.44,West,265,4.0,6.0,53,0.00,,,0.00,weatherlink.com 1.10,2013-06-28 21:18:00,
2013-06-28 17:33:00,85.5,66.0,29.43,West,269,1.0,6.0,53,0.00,,,0.00,weatherlink.com 1.10,2013-06-28 21:33:00,
2013-06-28 17:48:00,85.2,69.0,29.43,SW,226,1.0,4.0,59,0.00,,,0.00,weatherlink.com 1.10,2013-06-28 21:48:00,
2013-06-28 18:03:00,83.8,69.0,29.44,WNW,289,1.0,4.0,61,0.00,,,0.00,weatherlink.com 1.10,2013-06-28 22:03:00,
2013-06-28 18:18:00,83.0,69.0,29.44,ENE,73,2.0,5.0,63,0.00,,,0.00,weatherlink.com 1.10,2013-06-28 22:18:00,
2013-06-28 18:33:00,82.6,69.0,29.44,WSW,253,3.0,5.0,64,0.00,,,0.00,weatherlink.com 1.10,2013-06-28 22:33:00,
2013-06-28 18:48:00,83.0,69.0,29.45,SSW,203,2.0,4.0,63,0.00,,,0.00,weatherlink.com 1.10,2013-06-28 22:48:00,
2013-06-28 19:03:00,81.6,70.0,29.44,WSW,257,1.0,5.0,67,0.00,,,0.00,weatherlink.com 1.10,2013-06-28 23:03:00,
2013-06-28 19:18:00,80.8,69.0,29.43,ENE,68,3.0,5.0,68,0.00,,,0.00,weatherlink.com 1.10,2013-06-28 23:18:00,
2013-06-28 19:33:00,80.7,70.0,29.44,ENE,71,2.0,3.0,70,0.00,,,0.00,weatherlink.com 1.10,2013-06-28 23:33:00,
2013-06-28 19:48:00,79.8,71.0,29.44,NNW,338,1.0,3.0,74,0.00,,,0.00,weatherlink.com 1.10,2013-06-28 23:48:00,
2013-06-28 20:03:00,78.8,70.0,29.44,West,263,3.0,5.0,75,0.01,,,0.01,weatherlink.com 1.10,2013-06-29 00:03:00,
2013-06-28 20:18:00,79.0,70.0,29.45,West,262,2.0,3.0,75,0.01,,,0.01,weatherlink.com 1.10,2013-06-29 00:18:00,
2013-06-28 20:33:00,77.7,70.0,29.46,SSE,158,1.0,7.0,78,0.01,,,0.01,weatherlink.com 1.10,2013-06-29 00:33:00,
2013-06-28 20:48:00,77.6,70.0,29.46,WSW,256,4.0,6.0,78,0.01,,,0.01,weatherlink.com 1.10,2013-06-29 00:48:00,
2013-06-28 21:03:00,77.6,69.0,29.46,West,267,1.0,6.0,74,0.00,,,0.01,weatherlink.com 1.10,2013-06-29 01:03:00,
2013-06-28 21:18:00,77.4,68.0,29.46,ENE,68,1.0,6.0,72,0.00,,,0.01,weatherlink.com 1.10,2013-06-29 01:18:00,
2013-06-28 21:34:00,77.1,67.0,29.47,West,273,7.0,8.0,70,0.00,,,0.01,weatherlink.com 1.10,2013-06-29 01:34:00,
2013-06-28 21:49:00,76.8,66.0,29.47,WSW,257,3.0,9.0,70,0.00,,,0.01,weatherlink.com 1.10,2013-06-29 01:49:00,
2013-06-28 22:04:00,76.8,66.0,29.48,West,264,2.0,7.0,70,0.00,,,0.01,weatherlink.com 1.10,2013-06-29 02:04:00,
2013-06-28 22:19:00,76.7,67.0,29.48,West,263,1.0,9.0,71,0.00,,,0.01,weatherlink.com 1.10,2013-06-29 02:19:00,
2013-06-28 22:34:00,76.6,67.0,29.48,West,267,3.0,7.0,71,0.00,,,0.01,weatherlink.com 1.10,2013-06-29 02:34:00,
2013-06-28 22:49:00,76.2,66.0,29.47,WSW,249,3.0,8.0,71,0.00,,,0.01,weatherlink.com 1.10,2013-06-29 02:49:00,
2013-06-28 23:04:00,76.0,65.0,29.46,WSW,250,4.0,10.0,69,0.00,,,0.01,weatherlink.com 1.10,2013-06-29 03:04:00,
2013-06-28 23:19:00,76.1,65.0,29.47,WSW,248,3.0,9.0,68,0.00,,,0.01,weatherlink.com 1.10,2013-06-29 03:19:00,
2013-06-28 23:34:00,76.1,64.0,29.47,WSW,252,4.0,7.0,67,0.00,,,0.01,weatherlink.com 1.10,2013-06-29 03:34:00,
2013-06-28 23:49:00,76.4,64.0,29.46,WSW,238,3.0,5.0,65,0.00,,,0.01,weatherlink.com 1.10,2013-06-29 03:49:00,